createdAt,value
2023-08-21T00:04:02.407Z,65.30
2023-08-21T00:09:05.522Z,65.20
2023-08-21T00:14:08.876Z,65.30
2023-08-21T00:19:11.652Z,65.30
2023-08-21T00:24:14.982Z,65.10
2023-08-21T00:29:17.773Z,65.10
2023-08-21T00:34:20.557Z,65.00
2023-08-21T00:39:23.464Z,65.00
2023-08-21T00:44:26.300Z,64.90
2023-08-21T00:49:30.325Z,65.00
2023-08-21T00:54:33.553Z,65.00
2023-08-21T00:59:36.451Z,64.90
2023-08-21T01:04:40.263Z,65.20
2023-08-21T01:09:51.104Z,64.90
2023-08-21T01:14:59.590Z,65.60
2023-08-21T01:20:04.127Z,65.00
2023-08-21T01:25:08.180Z,65.10
2023-08-21T01:30:11.379Z,65.00
2023-08-21T01:35:15.141Z,65.50
2023-08-21T01:40:24.858Z,65.20
2023-08-21T01:45:27.874Z,65.10
2023-08-21T01:50:30.789Z,65.50
2023-08-21T01:55:34.003Z,65.10
2023-08-21T02:00:36.883Z,65.10
2023-08-21T02:05:43.743Z,65.10
2023-08-21T02:10:51.004Z,65.20
2023-08-21T02:15:54.237Z,65.30
2023-08-21T02:20:57.632Z,65.30
2023-08-21T02:26:00.553Z,65.50
2023-08-21T02:31:03.819Z,65.80
2023-08-21T02:36:09.624Z,66.10
2023-08-21T02:41:12.516Z,66.30
2023-08-21T02:46:16.001Z,66.60
2023-08-21T02:51:20.141Z,67.00
2023-08-21T02:56:22.994Z,67.30
2023-08-21T03:01:25.896Z,67.70
2023-08-21T03:06:28.828Z,67.40
2023-08-21T03:11:31.605Z,67.60
2023-08-21T03:16:34.607Z,67.30
2023-08-21T03:21:37.419Z,67.20
2023-08-21T03:26:40.653Z,67.30
2023-08-21T03:31:43.437Z,67.50
2023-08-21T03:36:46.561Z,68.00
2023-08-21T03:41:49.985Z,68.30
2023-08-21T03:46:52.946Z,68.60
2023-08-21T03:51:55.798Z,68.80
2023-08-21T03:56:58.894Z,69.20
2023-08-21T04:02:01.831Z,69.40
2023-08-21T04:07:05.320Z,69.40
2023-08-21T04:12:08.533Z,69.50
2023-08-21T04:17:11.556Z,69.80
2023-08-21T04:22:14.967Z,69.70
2023-08-21T04:27:18.280Z,69.40
2023-08-21T04:32:22.198Z,69.50
2023-08-21T04:37:25.944Z,69.60
2023-08-21T04:42:29.459Z,69.40
2023-08-21T04:47:32.800Z,69.30
2023-08-21T04:52:36.741Z,69.40
2023-08-21T04:57:39.945Z,69.40
2023-08-21T05:02:44.395Z,69.10
2023-08-21T05:07:48.292Z,69.00
2023-08-21T05:12:51.501Z,68.90
2023-08-21T05:17:54.631Z,68.70
2023-08-21T05:22:58.174Z,68.60
2023-08-21T05:28:01.190Z,68.50
2023-08-21T05:33:04.927Z,68.20
2023-08-21T05:38:08.395Z,67.90
2023-08-21T05:43:11.907Z,67.40
2023-08-21T05:48:19.921Z,67.20
2023-08-21T05:53:22.838Z,67.00
2023-08-21T05:58:30.350Z,66.80
2023-08-21T06:03:33.352Z,66.40
2023-08-21T06:09:05.930Z,66.00
2023-08-21T06:14:08.744Z,65.60
2023-08-21T06:19:11.762Z,65.60
2023-08-21T06:24:15.066Z,65.50
2023-08-21T06:29:18.076Z,65.70
2023-08-21T06:34:22.331Z,65.30
2023-08-21T06:39:27.189Z,65.20
2023-08-21T06:44:30.091Z,65.50
2023-08-21T06:49:32.876Z,65.50
2023-08-21T06:54:35.716Z,65.00
2023-08-21T06:59:40.681Z,65.20
2023-08-21T07:04:44.906Z,65.90
2023-08-21T07:09:47.774Z,65.60
2023-08-21T07:14:50.585Z,66.00
2023-08-21T07:19:53.847Z,66.00
2023-08-21T07:24:58.044Z,66.10
2023-08-21T07:30:01.088Z,66.40
2023-08-21T07:35:04.151Z,66.10
2023-08-21T07:40:10.175Z,66.30
2023-08-21T07:45:13.239Z,66.30
2023-08-21T07:50:17.769Z,66.00
2023-08-21T07:55:20.699Z,66.10
2023-08-21T08:00:24.008Z,65.90
2023-08-21T08:05:26.808Z,65.90
2023-08-21T08:10:29.817Z,65.50
2023-08-21T08:15:32.825Z,66.10
2023-08-21T08:20:35.535Z,65.70
2023-08-21T08:25:38.370Z,65.70
2023-08-21T08:30:41.351Z,65.50
2023-08-21T08:35:44.568Z,65.50
2023-08-21T08:40:48.595Z,65.30
2023-08-21T08:45:53.782Z,65.30
2023-08-21T08:50:58.934Z,65.40
2023-08-21T08:56:02.025Z,65.30
2023-08-21T09:01:04.950Z,66.10
2023-08-21T09:06:07.935Z,65.30
2023-08-21T09:11:11.051Z,64.60
2023-08-21T09:16:15.201Z,65.10
2023-08-21T09:21:19.801Z,64.90
2023-08-21T09:26:23.278Z,64.50
2023-08-21T09:31:34.127Z,64.20
2023-08-21T09:36:36.870Z,63.90
2023-08-21T09:41:39.835Z,63.30
2023-08-21T09:46:42.806Z,63.30
2023-08-21T09:51:45.776Z,63.10
2023-08-21T09:56:51.373Z,63.00
2023-08-21T10:01:54.457Z,62.90
2023-08-21T10:06:58.994Z,62.60
2023-08-21T10:12:02.888Z,62.30
2023-08-21T10:17:06.825Z,62.10
2023-08-21T10:22:09.538Z,62.70
2023-08-21T10:27:12.225Z,62.20
2023-08-21T10:32:23.669Z,62.30
2023-08-21T10:37:26.352Z,61.40
2023-08-21T10:42:41.583Z,60.90
2023-08-21T10:47:47.833Z,60.90
2023-08-21T10:52:52.660Z,61.00
2023-08-21T10:57:55.387Z,60.90
2023-08-21T11:02:58.337Z,61.10
2023-08-21T11:08:01.176Z,61.20
2023-08-21T11:13:07.889Z,61.20
2023-08-21T11:18:10.622Z,61.60
2023-08-21T11:23:13.278Z,61.10
2023-08-21T11:28:17.630Z,60.90
2023-08-21T11:33:20.454Z,60.40
2023-08-21T11:38:24.603Z,61.60
2023-08-21T11:43:41.841Z,61.20
2023-08-21T11:48:46.166Z,60.90
2023-08-21T11:53:49.952Z,60.70
2023-08-21T11:58:52.555Z,60.90
2023-08-21T12:03:56.551Z,60.90
2023-08-21T12:09:01.145Z,61.70
2023-08-21T12:14:03.728Z,61.50
2023-08-21T12:19:10.218Z,61.50
2023-08-21T12:24:12.936Z,61.40
2023-08-21T12:29:15.633Z,61.50
2023-08-21T12:34:18.531Z,61.30
2023-08-21T12:39:22.880Z,61.20
2023-08-21T12:44:25.914Z,61.60
2023-08-21T12:49:29.029Z,61.70
2023-08-21T12:54:31.718Z,61.60
2023-08-21T12:59:34.510Z,61.50
2023-08-21T13:04:37.299Z,61.30
2023-08-21T13:09:40.204Z,61.50
2023-08-21T13:14:43.223Z,61.90
2023-08-21T13:19:46.637Z,61.80
2023-08-21T13:24:49.475Z,62.20
2023-08-21T13:29:52.339Z,62.40
2023-08-21T13:34:55.165Z,62.90
2023-08-21T13:40:00.257Z,63.00
2023-08-21T13:45:03.957Z,63.00
2023-08-21T13:50:08.588Z,63.10
2023-08-21T13:55:12.384Z,63.10
2023-08-21T14:00:18.568Z,63.40
2023-08-21T14:05:21.701Z,62.80
2023-08-21T14:10:24.722Z,62.70
2023-08-21T14:15:27.319Z,62.70
2023-08-21T14:20:30.239Z,62.80
2023-08-21T14:25:33.223Z,62.60
2023-08-21T14:30:35.981Z,61.80
2023-08-21T14:35:38.740Z,61.10
2023-08-21T14:40:41.541Z,61.40
2023-08-21T14:45:44.461Z,60.80
2023-08-21T14:50:47.364Z,60.90
2023-08-21T14:55:50.061Z,60.70
2023-08-21T15:00:58.953Z,60.50
2023-08-21T15:06:01.602Z,60.30
2023-08-21T15:11:04.512Z,60.00
2023-08-21T15:16:08.287Z,59.80
2023-08-21T15:21:11.353Z,59.40
2023-08-21T15:26:14.260Z,59.70
2023-08-21T15:31:17.062Z,59.20
2023-08-21T15:36:20.085Z,59.00
2023-08-21T15:41:23.190Z,58.90
2023-08-21T15:46:28.614Z,58.60
2023-08-21T15:51:31.344Z,58.70
2023-08-21T15:56:34.044Z,58.30
2023-08-21T16:01:36.821Z,58.00
2023-08-21T16:06:40.997Z,58.50
2023-08-21T16:11:43.798Z,59.40
2023-08-21T16:16:46.693Z,61.00
2023-08-21T16:21:50.850Z,59.20
2023-08-21T16:26:53.633Z,58.80
2023-08-21T16:31:56.425Z,58.70
2023-08-21T16:36:59.351Z,58.30
2023-08-21T16:42:02.556Z,58.40
2023-08-21T16:47:07.327Z,58.20
2023-08-21T16:52:10.014Z,58.00
2023-08-21T16:57:13.323Z,58.10
2023-08-21T17:02:21.870Z,57.80
2023-08-21T17:07:25.166Z,58.00
2023-08-21T17:12:29.800Z,58.00
2023-08-21T17:17:33.402Z,58.00
2023-08-21T17:22:36.385Z,58.60
2023-08-21T17:27:40.162Z,58.40
2023-08-21T17:32:44.432Z,58.40
2023-08-21T17:37:48.364Z,58.60
2023-08-21T17:42:52.296Z,58.60
2023-08-21T17:47:56.936Z,59.00
2023-08-21T17:53:03.699Z,58.70
2023-08-21T17:58:08.164Z,58.90
2023-08-21T18:03:11.851Z,59.00
2023-08-21T18:08:15.795Z,59.30
2023-08-21T18:13:19.439Z,59.40
2023-08-21T18:18:23.784Z,59.60
2023-08-21T18:23:30.529Z,60.10
2023-08-21T18:28:33.500Z,59.60
2023-08-21T18:33:38.721Z,60.40
2023-08-21T18:38:42.920Z,60.70
2023-08-21T18:43:46.391Z,60.60
2023-08-21T18:48:49.516Z,60.60
2023-08-21T18:53:52.524Z,60.80
2023-08-21T18:58:56.670Z,60.70
2023-08-21T19:04:01.387Z,60.80
2023-08-21T19:09:06.072Z,61.00
2023-08-21T19:14:11.121Z,61.00
2023-08-21T19:19:15.654Z,61.00
2023-08-21T19:24:23.562Z,61.00
2023-08-21T19:29:27.709Z,61.00
2023-08-21T19:34:31.940Z,61.00
2023-08-21T19:39:36.681Z,60.70
2023-08-21T19:44:41.832Z,61.20
2023-08-21T19:49:47.148Z,61.60
2023-08-21T19:54:52.468Z,61.20
2023-08-21T19:59:57.410Z,61.20
2023-08-21T20:05:11.477Z,61.20
2023-08-21T20:10:15.816Z,61.20
2023-08-21T20:15:19.141Z,61.20
2023-08-21T20:20:26.287Z,61.40
2023-08-21T20:25:30.081Z,61.30
2023-08-21T20:30:33.903Z,61.40
2023-08-21T20:35:37.637Z,61.50
2023-08-21T20:40:41.246Z,61.60
2023-08-21T20:45:44.880Z,61.90
2023-08-21T20:50:49.773Z,61.90
2023-08-21T20:56:00.088Z,61.60
2023-08-21T21:01:03.430Z,61.50
2023-08-21T21:06:06.420Z,61.50
2023-08-21T21:11:09.733Z,61.50
2023-08-21T21:16:12.634Z,61.50
2023-08-21T21:21:15.652Z,61.60
2023-08-21T21:26:19.391Z,61.50
2023-08-21T21:31:22.402Z,61.40
2023-08-21T21:36:25.902Z,61.40
2023-08-21T21:41:28.603Z,61.40
2023-08-21T21:46:32.093Z,61.40
2023-08-21T21:51:34.934Z,61.50
2023-08-21T21:56:38.980Z,62.30
2023-08-21T22:01:41.627Z,61.70
2023-08-21T22:06:46.118Z,61.80
2023-08-21T22:11:49.332Z,61.70
2023-08-21T22:16:52.538Z,61.80
2023-08-21T22:21:55.649Z,61.80
2023-08-21T22:26:58.761Z,61.70
2023-08-21T22:32:02.126Z,61.60
2023-08-21T22:37:06.622Z,61.60
2023-08-21T22:42:09.949Z,61.80
2023-08-21T22:47:13.375Z,61.80
2023-08-21T22:52:16.378Z,62.20
2023-08-21T22:57:19.578Z,61.80
2023-08-21T23:02:22.997Z,61.80
2023-08-21T23:07:26.205Z,61.70
2023-08-21T23:12:29.337Z,61.60
2023-08-21T23:17:32.634Z,61.50
2023-08-21T23:22:35.982Z,61.60
2023-08-21T23:27:39.864Z,61.50
2023-08-21T23:32:43.118Z,61.70
2023-08-21T23:37:46.405Z,61.50
2023-08-21T23:42:49.528Z,61.50
2023-08-21T23:47:53.584Z,61.80
2023-08-21T23:52:57.956Z,61.60
2023-08-21T23:58:05.012Z,61.80
